Flight ASX314

  • Submitted By: Krzysztof H. Blaszkow
  • Departure Airport: Gdansk im. Lecha Walesy (EPGD)
  • Arrival Airport: Rzeszow Jasionka (EPRZ)
  • Aircraft: ATR 72-500 (SP-RYD)
  • Flight Time: 01.54.43
  • Date Submitted: 11/25/2016
  • Status: Accepted
Flight Details
Gross Revenue:
(72 load / € 95.00 per unit
€ 6,840.00
Fuel Cost:
(1103.14 fuel used @ 0.45 / unit)
€ 496.41

Additional Log Information:

View Log

[23:53] - Flight 1 ATR 72-500 House Livery
[23:53] - Flight ASX314 is ready to depart EPGD with a final destination of EPRZ.
[23:53] - Parking Brake Applied
[23:53] - Beacon Light ON
[23:53] - Logo Lights ON
[23:53] - Boarding
[23:53] - ADF1 - 305.0
[23:53] - ADF2 - 371.0
[23:53] - NAV1 - 114.30
[23:53] - NAV2 - 114.05
[23:53] - COM1 - 125.50
[23:53] - COM2 - 125.27
[23:53] - Transponder - 1200
[23:56] - NAV1 - 116.10
[23:56] - Transponder - 2200
[23:57] - COM1 - 122.80
[23:57] - Navigation Lights ON 6AGL
[23:57] - Taxi Lights ON 6AGL
[23:59] - Parking Brake Released
[23:59] - Pushing Back from the gate
[23:59] - Wing Lights ON 6AGL
[23:59] - Engine 1 Started
[00:00] - Engine 2 Started
[00:03] - Taxiing to Runway
[00:04] - Flaps to position 1
[00:06] - Strobe Lights ON 6AGL
[00:06] - Taxi Lights OFF 6AGL
[00:06] - Landing Lights ON 6AGL
[00:10] - Taking Off with 72 passengers on board
[00:10] - Take off at 122kts, with a pitch of 4deg and 5511lbs of fuel on board
[00:10] - Wind Heading 256 | Wind Speed 3kts | Temperature 0 deg C
[00:10] - METAR Departure: EPGD 242330Z 28007KT CAVOK 02/01 Q1023

[00:11] - Flaps to position 0 at 666ft and 137kts
[00:11] - Gear up at 259AGL
[00:11] - Climbing to TOC
[00:15] - AutoPilot Engaged at 7123AGL
[00:18] - Landing Lights OFF 9990AGL
[00:31] - NAV1 - 116.20
[00:41] - TOC reached
[00:41] - Cruise started
[01:01] - NAV2 - 110.30
[01:13] - TOD reached
[01:13] - Descending to destination
[01:20] - Landing Lights ON 10204AGL
[01:21] - NAV1 - 110.30
[01:23] - Landing Shortly
[01:25] - Flaps to position 1 at 4039ft and 142kts
[01:27] - Gear down at 3229AGL
[01:30] - AutoPilot Disengaged at 302AGL
[01:31] - Landed at -271fpm. With 3253lbs of fuel onboard and a pitch angle of 0deg.
[01:31] - Wind Heading 6 | Wind Speed 2kts | Temperature 4 deg C
[01:31] - METAR Arrival: EPRZ 250100Z 31002KT 2000 BR NSC 04/04 Q1020

[01:32] - Taxiing to Gate
[01:33] - Flaps to position 0
[01:35] - Landing Lights OFF 7AGL
[01:35] - Taxi Lights ON 7AGL
[01:36] - Strobe Lights OFF 7AGL
[01:41] - Parking Brake Applied
[01:41] - Arrived safely at EPRZ. We hope you enjoyed your flight!
[01:41] - Taxi Lights OFF 7AGL
[01:41] - Navigation Lights OFF 7AGL
[01:41] - Engine 1 Stopped
[01:41] - Engine 2 Stopped
[01:48] - Flight 1 ATR 72-500 House Livery
[01:48] - MaxSim Rate: 1x
[01:48] - SiouxAcars ver: 1.0.1.2

Route Map